Terminal Aerodrome Forecast
Issued by NWS Duluth, MN

Home | Current Version | Previous Version | Text Only | Print | Product List | Glossary On
Versions: 1 2 3 4 5 6 7 8 9 10 11 12 13 14 15 16 17 18 19 20 21 22 23 24 25 26 27 28
445
FTUS43 KDLH 041140
TAFINL
TAF
KINL 041140Z 0412/0512 13005KT 4SM -SN BR OVC015
     FM041500 30006KT P6SM SCT018 BKN025
     FM050500 27004KT P6SM BKN025 OVC050=

USA.gov is the U.S. government's official web portal to all federal, state and local government web resources and services.